TNCM/SXM METAR and TAF weather

Enter ICAO airport designator
Station Type Date Time Source
TNCM METAR 2018/12/10 13:00 UTC NOAA

TNCM 101300Z 10013KT 060V140 9999 SCT020 28/21 Q1020 A3012 NOSIG


Station Type Date Time Source
TNCM Decoded METAR 2018/12/10 13:00 UTC NOAA

Juliana Airport, Saint Maarten, Netherlands Antilles (TNCM) 18-03N 063-07W 9M
Dec 10, 2018 - 08:00 AM EST / 2018.12.10 1300 UTC
Wind: from the E (100 degrees) at 15 MPH (13 KT) (direction variable):0
Visibility: greater than 7 mile(s):0
Sky conditions: partly cloudy
Temperature: 82 F (28 C)
Dew Point: 69 F (21 C)
Relative Humidity: 65%
Pressure (altimeter): 30.12 in. Hg (1019 hPa)
ob: TNCM 101300Z 10013KT 060V140 9999 SCT020 28/21 Q1020 A3012 NOSIG
cycle: 13

Station Type Date Time Source
TNCM TAF 2018/12/10 12:36 UTC NOAA

TAF TNCM 101130Z 1012/1112 10010KT P6SM VCSH FEW018
FM101400 12015KT P6SM VCSH SCT018
FM102100 08010KT P6SM SCT020


Example: see airport list